sensor_id;sensor_type;location;lat;lon;timestamp;pressure;altitude;pressure_sealevel;temperature;humidity
56272;BME280;42177;48.914;18.160;2023-04-23T00:02:55;982;;;12.2;62.5
56272;BME280;42177;48.914;18.160;2023-04-23T00:07:55;981.9;;;12.2;62.5
56272;BME280;42177;48.914;18.160;2023-04-23T00:12:55;981.9;;;12.2;62.5
56272;BME280;42177;48.914;18.160;2023-04-23T00:17:55;982.1;;;11.6;66.2
56272;BME280;42177;48.914;18.160;2023-04-23T00:22:55;982.1;;;11.6;66.2
56272;BME280;42177;48.914;18.160;2023-04-23T00:27:55;982;;;11.9;65.7
56272;BME280;42177;48.914;18.160;2023-04-23T00:32:55;982;;;11.9;65.7
56272;BME280;42177;48.914;18.160;2023-04-23T00:37:55;982;;;11.8;65.9
56272;BME280;42177;48.914;18.160;2023-04-23T00:42:55;982;;;11.8;65.9
56272;BME280;42177;48.914;18.160;2023-04-23T00:47:55;981.9;;;11.9;65.8
56272;BME280;42177;48.914;18.160;2023-04-23T00:52:55;981.9;;;11.9;65.8
56272;BME280;42177;48.914;18.160;2023-04-23T00:57:55;981.9;;;11.9;65.4
56272;BME280;42177;48.914;18.160;2023-04-23T01:02:55;981.9;;;11.9;65.4
56272;BME280;42177;48.914;18.160;2023-04-23T01:07:55;981.9;;;11.6;66.3
56272;BME280;42177;48.914;18.160;2023-04-23T01:12:55;981.9;;;11.6;66.3
56272;BME280;42177;48.914;18.160;2023-04-23T01:17:55;981.9;;;11.2;68.4
56272;BME280;42177;48.914;18.160;2023-04-23T01:22:55;981.9;;;11.2;68.4
56272;BME280;42177;48.914;18.160;2023-04-23T01:27:55;981.8;;;11.1;69.3
56272;BME280;42177;48.914;18.160;2023-04-23T01:32:55;981.8;;;11.1;69.3
56272;BME280;42177;48.914;18.160;2023-04-23T01:37:55;981.9;;;10.8;71.2
56272;BME280;42177;48.914;18.160;2023-04-23T01:42:55;981.9;;;10.8;71.2
56272;BME280;42177;48.914;18.160;2023-04-23T01:47:55;981.9;;;10.9;70.7
56272;BME280;42177;48.914;18.160;2023-04-23T01:52:55;981.9;;;10.9;70.7
56272;BME280;42177;48.914;18.160;2023-04-23T01:57:55;981.8;;;10.9;70.9
56272;BME280;42177;48.914;18.160;2023-04-23T02:02:55;981.8;;;10.9;70.9
56272;BME280;42177;48.914;18.160;2023-04-23T02:07:55;981.8;;;10.8;71.2
56272;BME280;42177;48.914;18.160;2023-04-23T02:12:57;981.8;;;10.8;71.2
56272;BME280;42177;48.914;18.160;2023-04-23T02:17:55;981.9;;;10.6;71.7
56272;BME280;42177;48.914;18.160;2023-04-23T02:22:55;981.9;;;10.6;71.7
56272;BME280;42177;48.914;18.160;2023-04-23T02:27:55;981.9;;;10.9;71
56272;BME280;42177;48.914;18.160;2023-04-23T02:32:55;981.9;;;10.9;71
56272;BME280;42177;48.914;18.160;2023-04-23T02:37:55;981.7;;;10.8;71.3
56272;BME280;42177;48.914;18.160;2023-04-23T02:42:55;981.7;;;10.8;71.3
56272;BME280;42177;48.914;18.160;2023-04-23T02:47:55;981.8;;;10.7;71.6
56272;BME280;42177;48.914;18.160;2023-04-23T02:52:55;981.8;;;10.7;71.6
56272;BME280;42177;48.914;18.160;2023-04-23T02:57:55;981.7;;;10.6;72.3
56272;BME280;42177;48.914;18.160;2023-04-23T03:02:55;981.7;;;10.6;72.3
56272;BME280;42177;48.914;18.160;2023-04-23T03:07:55;981.7;;;10.5;72.6
56272;BME280;42177;48.914;18.160;2023-04-23T03:12:55;981.7;;;10.5;72.6
56272;BME280;42177;48.914;18.160;2023-04-23T03:17:55;981.7;;;10.4;73.1
56272;BME280;42177;48.914;18.160;2023-04-23T03:22:56;981.7;;;10.4;73.1
56272;BME280;42177;48.914;18.160;2023-04-23T03:27:55;981.7;;;10.2;74
56272;BME280;42177;48.914;18.160;2023-04-23T03:32:55;981.7;;;10.2;74
56272;BME280;42177;48.914;18.160;2023-04-23T03:37:55;981.8;;;10.1;74.7
56272;BME280;42177;48.914;18.160;2023-04-23T03:42:55;981.8;;;10.1;74.7
56272;BME280;42177;48.914;18.160;2023-04-23T03:47:55;981.9;;;9.7;76
56272;BME280;42177;48.914;18.160;2023-04-23T03:52:55;981.9;;;9.7;76
56272;BME280;42177;48.914;18.160;2023-04-23T03:57:55;982;;;9.9;75.8
56272;BME280;42177;48.914;18.160;2023-04-23T04:02:55;982;;;9.9;75.8
56272;BME280;42177;48.914;18.160;2023-04-23T04:07:55;982;;;9.9;76.1
56272;BME280;42177;48.914;18.160;2023-04-23T04:12:55;982;;;9.9;76.1
56272;BME280;42177;48.914;18.160;2023-04-23T04:17:55;982;;;10;75.6
56272;BME280;42177;48.914;18.160;2023-04-23T04:22:55;982;;;10;75.6
56272;BME280;42177;48.914;18.160;2023-04-23T04:27:55;982;;;10.1;75.8
56272;BME280;42177;48.914;18.160;2023-04-23T04:32:55;982;;;10.1;75.8
56272;BME280;42177;48.914;18.160;2023-04-23T04:37:55;982;;;10.2;75.5
56272;BME280;42177;48.914;18.160;2023-04-23T04:42:55;982;;;10.2;75.5
56272;BME280;42177;48.914;18.160;2023-04-23T04:47:55;982;;;9.9;76.5
56272;BME280;42177;48.914;18.160;2023-04-23T04:52:55;982;;;9.9;76.5
56272;BME280;42177;48.914;18.160;2023-04-23T04:57:55;982;;;10.3;75.9
56272;BME280;42177;48.914;18.160;2023-04-23T05:02:56;982;;;10.3;75.9
56272;BME280;42177;48.914;18.160;2023-04-23T05:07:55;982;;;10.4;75.5
56272;BME280;42177;48.914;18.160;2023-04-23T05:12:55;982;;;10.4;75.5
56272;BME280;42177;48.914;18.160;2023-04-23T05:17:55;982;;;10.8;73.7
56272;BME280;42177;48.914;18.160;2023-04-23T05:22:55;982;;;10.8;73.7
56272;BME280;42177;48.914;18.160;2023-04-23T05:27:55;982;;;11.1;72.3
56272;BME280;42177;48.914;18.160;2023-04-23T05:32:55;982;;;11.1;72.3
56272;BME280;42177;48.914;18.160;2023-04-23T05:37:55;982;;;11.8;69.9
56272;BME280;42177;48.914;18.160;2023-04-23T05:42:56;982;;;11.8;69.9
56272;BME280;42177;48.914;18.160;2023-04-23T05:47:55;982;;;12.1;67.9
56272;BME280;42177;48.914;18.160;2023-04-23T05:52:55;982;;;12.1;67.9
56272;BME280;42177;48.914;18.160;2023-04-23T05:57:55;982;;;12.8;67
56272;BME280;42177;48.914;18.160;2023-04-23T06:02:55;982;;;12.8;67
56272;BME280;42177;48.914;18.160;2023-04-23T06:07:55;982;;;13.1;65.4
56272;BME280;42177;48.914;18.160;2023-04-23T06:12:55;982;;;13.1;65.4
56272;BME280;42177;48.914;18.160;2023-04-23T06:17:55;982;;;13.7;64.7
56272;BME280;42177;48.914;18.160;2023-04-23T06:22:55;982;;;13.7;64.7
56272;BME280;42177;48.914;18.160;2023-04-23T06:27:55;981.9;;;13.8;63.3
56272;BME280;42177;48.914;18.160;2023-04-23T06:32:55;981.9;;;13.8;63.3
56272;BME280;42177;48.914;18.160;2023-04-23T06:37:55;981.9;;;14.1;64.9
56272;BME280;42177;48.914;18.160;2023-04-23T06:42:55;981.9;;;14.1;64.9
56272;BME280;42177;48.914;18.160;2023-04-23T06:47:55;981.8;;;14.7;64.6
56272;BME280;42177;48.914;18.160;2023-04-23T06:52:55;981.8;;;14.7;64.6
56272;BME280;42177;48.914;18.160;2023-04-23T06:57:56;981.8;;;15.1;62.7
56272;BME280;42177;48.914;18.160;2023-04-23T07:02:55;981.8;;;15.1;62.7
56272;BME280;42177;48.914;18.160;2023-04-23T07:07:55;981.7;;;16.3;46.6
56272;BME280;42177;48.914;18.160;2023-04-23T07:12:55;981.7;;;16.3;46.6
56272;BME280;42177;48.914;18.160;2023-04-23T07:17:55;981.7;;;16.6;43.7
56272;BME280;42177;48.914;18.160;2023-04-23T07:22:56;981.7;;;16.6;43.7
56272;BME280;42177;48.914;18.160;2023-04-23T07:27:55;981.7;;;17;42.8
56272;BME280;42177;48.914;18.160;2023-04-23T07:32:55;981.7;;;17;42.8
56272;BME280;42177;48.914;18.160;2023-04-23T07:37:55;981.6;;;17.4;41.5
56272;BME280;42177;48.914;18.160;2023-04-23T07:42:56;981.6;;;17.4;41.5
56272;BME280;42177;48.914;18.160;2023-04-23T07:47:55;981.8;;;17.8;41.2
56272;BME280;42177;48.914;18.160;2023-04-23T07:52:55;981.8;;;17.8;41.2
56272;BME280;42177;48.914;18.160;2023-04-23T07:57:55;981.8;;;18.1;40.8
56272;BME280;42177;48.914;18.160;2023-04-23T08:02:56;981.8;;;18.1;40.8
56272;BME280;42177;48.914;18.160;2023-04-23T08:07:55;981.7;;;18.4;40.1
56272;BME280;42177;48.914;18.160;2023-04-23T08:12:55;981.7;;;18.4;40.1
56272;BME280;42177;48.914;18.160;2023-04-23T08:17:55;981.6;;;18.6;38.7
56272;BME280;42177;48.914;18.160;2023-04-23T08:22:55;981.6;;;18.6;38.7
56272;BME280;42177;48.914;18.160;2023-04-23T08:27:55;981.6;;;19;38.1
56272;BME280;42177;48.914;18.160;2023-04-23T08:32:55;981.6;;;19;38.1
56272;BME280;42177;48.914;18.160;2023-04-23T08:37:55;981.5;;;19.6;38
56272;BME280;42177;48.914;18.160;2023-04-23T08:42:56;981.5;;;19.6;38
56272;BME280;42177;48.914;18.160;2023-04-23T08:47:57;981.5;;;20.3;38
56272;BME280;42177;48.914;18.160;2023-04-23T08:52:56;981.5;;;20.3;38
56272;BME280;42177;48.914;18.160;2023-04-23T08:57:56;981.4;;;20;38.5
56272;BME280;42177;48.914;18.160;2023-04-23T09:02:56;981.4;;;20;38.5
56272;BME280;42177;48.914;18.160;2023-04-23T09:07:56;981.2;;;20.2;36.6
56272;BME280;42177;48.914;18.160;2023-04-23T09:12:55;981.2;;;20.2;36.6
56272;BME280;42177;48.914;18.160;2023-04-23T09:17:56;981.3;;;20.5;34.6
56272;BME280;42177;48.914;18.160;2023-04-23T09:22:56;981.3;;;20.5;34.6
56272;BME280;42177;48.914;18.160;2023-04-23T09:27:55;981.2;;;21.2;34.3
56272;BME280;42177;48.914;18.160;2023-04-23T09:32:56;981.2;;;21.2;34.3
56272;BME280;42177;48.914;18.160;2023-04-23T09:37:55;981.2;;;21.2;33.5
56272;BME280;42177;48.914;18.160;2023-04-23T09:42:55;981.2;;;21.2;33.5
56272;BME280;42177;48.914;18.160;2023-04-23T09:47:56;981.4;;;21.4;32.9
56272;BME280;42177;48.914;18.160;2023-04-23T09:52:55;981.4;;;21.4;32.9
56272;BME280;42177;48.914;18.160;2023-04-23T09:57:55;981.1;;;21.5;32.5
56272;BME280;42177;48.914;18.160;2023-04-23T10:02:55;981.1;;;21.5;32.5
56272;BME280;42177;48.914;18.160;2023-04-23T10:07:55;981;;;21.6;31.9
56272;BME280;42177;48.914;18.160;2023-04-23T10:12:55;981;;;21.6;31.9
56272;BME280;42177;48.914;18.160;2023-04-23T10:17:55;980.8;;;21.9;31.9
56272;BME280;42177;48.914;18.160;2023-04-23T10:22:55;980.8;;;21.9;31.9
56272;BME280;42177;48.914;18.160;2023-04-23T10:27:55;980.5;;;22.5;32
56272;BME280;42177;48.914;18.160;2023-04-23T10:32:55;980.5;;;22.5;32
56272;BME280;42177;48.914;18.160;2023-04-23T10:37:55;980.6;;;23;29.4
56272;BME280;42177;48.914;18.160;2023-04-23T10:42:55;980.6;;;23;29.4
56272;BME280;42177;48.914;18.160;2023-04-23T10:47:56;980.4;;;22.7;29.6
56272;BME280;42177;48.914;18.160;2023-04-23T10:52:56;980.4;;;22.7;29.6
56272;BME280;42177;48.914;18.160;2023-04-23T10:57:57;980.4;;;23;29.2
56272;BME280;42177;48.914;18.160;2023-04-23T11:02:55;980.4;;;23;29.2
56272;BME280;42177;48.914;18.160;2023-04-23T11:08:01;980.4;;;22.9;29
56272;BME280;42177;48.914;18.160;2023-04-23T11:12:55;980.4;;;22.9;29
56272;BME280;42177;48.914;18.160;2023-04-23T11:17:57;980.5;;;23.8;29.6
56272;BME280;42177;48.914;18.160;2023-04-23T11:22:55;980.5;;;23.8;29.6
56272;BME280;42177;48.914;18.160;2023-04-23T11:27:56;980.2;;;23.3;29.3
56272;BME280;42177;48.914;18.160;2023-04-23T11:32:56;980.2;;;23.3;29.3
56272;BME280;42177;48.914;18.160;2023-04-23T11:37:55;980.2;;;23.7;29.4
56272;BME280;42177;48.914;18.160;2023-04-23T11:42:55;980.2;;;23.7;29.4
56272;BME280;42177;48.914;18.160;2023-04-23T11:47:56;980.1;;;24.1;29.2
56272;BME280;42177;48.914;18.160;2023-04-23T11:52:56;980.1;;;24.1;29.2
56272;BME280;42177;48.914;18.160;2023-04-23T11:57:56;980;;;24.2;29.3
56272;BME280;42177;48.914;18.160;2023-04-23T12:02:56;980;;;24.2;29.3
56272;BME280;42177;48.914;18.160;2023-04-23T12:08:05;980;;;24.3;30.6
56272;BME280;42177;48.914;18.160;2023-04-23T12:12:57;980;;;24.3;30.6
56272;BME280;42177;48.914;18.160;2023-04-23T12:18:07;980.1;;;24.3;30.2
56272;BME280;42177;48.914;18.160;2023-04-23T12:22:56;980.1;;;24.3;30.2
56272;BME280;42177;48.914;18.160;2023-04-23T12:27:57;979.8;;;23.2;31.8
56272;BME280;42177;48.914;18.160;2023-04-23T12:32:58;979.8;;;23.2;31.8
56272;BME280;42177;48.914;18.160;2023-04-23T12:37:56;979.9;;;23.7;32.1
56272;BME280;42177;48.914;18.160;2023-04-23T12:42:55;979.9;;;23.7;32.1
56272;BME280;42177;48.914;18.160;2023-04-23T12:47:55;979.7;;;23.9;32.6
56272;BME280;42177;48.914;18.160;2023-04-23T12:52:55;979.7;;;23.9;32.6
56272;BME280;42177;48.914;18.160;2023-04-23T12:57:56;979.7;;;24.1;32
56272;BME280;42177;48.914;18.160;2023-04-23T13:02:55;979.7;;;24.1;32
56272;BME280;42177;48.914;18.160;2023-04-23T13:07:55;979.5;;;23.5;33.2
56272;BME280;42177;48.914;18.160;2023-04-23T13:12:55;979.5;;;23.5;33.2
56272;BME280;42177;48.914;18.160;2023-04-23T13:17:56;979.4;;;23.7;32.4
56272;BME280;42177;48.914;18.160;2023-04-23T13:22:55;979.4;;;23.7;32.4
56272;BME280;42177;48.914;18.160;2023-04-23T13:27:55;979.3;;;22.7;33.6
56272;BME280;42177;48.914;18.160;2023-04-23T13:32:55;979.3;;;22.7;33.6
56272;BME280;42177;48.914;18.160;2023-04-23T13:37:56;979.4;;;24;31.9
56272;BME280;42177;48.914;18.160;2023-04-23T13:42:55;979.4;;;24;31.9
56272;BME280;42177;48.914;18.160;2023-04-23T13:47:55;979.2;;;22.9;31.9
56272;BME280;42177;48.914;18.160;2023-04-23T13:52:55;979.2;;;22.9;31.9
56272;BME280;42177;48.914;18.160;2023-04-23T13:57:56;979.2;;;23.2;31.6
56272;BME280;42177;48.914;18.160;2023-04-23T14:02:55;979.2;;;23.2;31.6
56272;BME280;42177;48.914;18.160;2023-04-23T14:07:55;979;;;23.6;31
56272;BME280;42177;48.914;18.160;2023-04-23T14:12:55;979;;;23.6;31
56272;BME280;42177;48.914;18.160;2023-04-23T14:17:56;979;;;24;30.8
56272;BME280;42177;48.914;18.160;2023-04-23T14:23:00;979;;;24;30.8
56272;BME280;42177;48.914;18.160;2023-04-23T14:27:56;978.8;;;23.9;30.9
56272;BME280;42177;48.914;18.160;2023-04-23T14:32:55;978.8;;;23.9;30.9
56272;BME280;42177;48.914;18.160;2023-04-23T14:37:56;978.8;;;23.1;31.2
56272;BME280;42177;48.914;18.160;2023-04-23T14:42:56;978.8;;;23.1;31.2
56272;BME280;42177;48.914;18.160;2023-04-23T14:47:56;978.7;;;23.6;30.9
56272;BME280;42177;48.914;18.160;2023-04-23T14:52:55;978.7;;;23.6;30.9
56272;BME280;42177;48.914;18.160;2023-04-23T14:57:56;978.7;;;23.9;30.2
56272;BME280;42177;48.914;18.160;2023-04-23T15:02:56;978.7;;;23.9;30.2
56272;BME280;42177;48.914;18.160;2023-04-23T15:07:56;978.6;;;23.5;30.7
56272;BME280;42177;48.914;18.160;2023-04-23T15:13:00;978.6;;;23.5;30.7
56272;BME280;42177;48.914;18.160;2023-04-23T15:17:56;978.6;;;24.1;30.4
56272;BME280;42177;48.914;18.160;2023-04-23T15:22:56;978.6;;;24.1;30.4
56272;BME280;42177;48.914;18.160;2023-04-23T15:27:55;978.5;;;23.5;30.8
56272;BME280;42177;48.914;18.160;2023-04-23T15:32:56;978.5;;;23.5;30.8
56272;BME280;42177;48.914;18.160;2023-04-23T15:37:55;978.5;;;24.6;30
56272;BME280;42177;48.914;18.160;2023-04-23T15:42:55;978.5;;;24.6;30
56272;BME280;42177;48.914;18.160;2023-04-23T15:47:55;978.4;;;24.7;29.9
56272;BME280;42177;48.914;18.160;2023-04-23T15:52:56;978.4;;;24.7;29.9
56272;BME280;42177;48.914;18.160;2023-04-23T15:57:55;978.3;;;23;31.1
56272;BME280;42177;48.914;18.160;2023-04-23T16:02:56;978.3;;;23;31.1
56272;BME280;42177;48.914;18.160;2023-04-23T16:07:56;978.2;;;22.6;31.9
56272;BME280;42177;48.914;18.160;2023-04-23T16:12:56;978.2;;;22.6;31.9
56272;BME280;42177;48.914;18.160;2023-04-23T16:17:55;978.2;;;21.9;33.3
56272;BME280;42177;48.914;18.160;2023-04-23T16:22:56;978.2;;;21.9;33.3
56272;BME280;42177;48.914;18.160;2023-04-23T16:27:55;978.1;;;21.8;33.4
56272;BME280;42177;48.914;18.160;2023-04-23T16:32:56;978.1;;;21.8;33.4
56272;BME280;42177;48.914;18.160;2023-04-23T16:37:55;978;;;21.6;34.1
56272;BME280;42177;48.914;18.160;2023-04-23T16:42:55;978;;;21.6;34.1
56272;BME280;42177;48.914;18.160;2023-04-23T16:47:56;978;;;21.6;34.8
56272;BME280;42177;48.914;18.160;2023-04-23T16:52:56;978;;;21.6;34.8
56272;BME280;42177;48.914;18.160;2023-04-23T16:57:56;977.9;;;21.1;36
56272;BME280;42177;48.914;18.160;2023-04-23T17:02:56;977.9;;;21.1;36
56272;BME280;42177;48.914;18.160;2023-04-23T17:07:56;977.9;;;20.8;37.7
56272;BME280;42177;48.914;18.160;2023-04-23T17:12:56;977.9;;;20.8;37.7
56272;BME280;42177;48.914;18.160;2023-04-23T17:17:56;977.9;;;20.3;38.5
56272;BME280;42177;48.914;18.160;2023-04-23T17:22:56;977.9;;;20.3;38.5
56272;BME280;42177;48.914;18.160;2023-04-23T17:27:56;977.8;;;20.1;38.9
56272;BME280;42177;48.914;18.160;2023-04-23T17:32:56;977.8;;;20.1;38.9
56272;BME280;42177;48.914;18.160;2023-04-23T17:37:56;977.8;;;20.1;38.6
56272;BME280;42177;48.914;18.160;2023-04-23T17:42:56;977.8;;;20.1;38.6
56272;BME280;42177;48.914;18.160;2023-04-23T17:47:56;977.8;;;19.9;39.5
56272;BME280;42177;48.914;18.160;2023-04-23T17:52:56;977.8;;;19.9;39.5
56272;BME280;42177;48.914;18.160;2023-04-23T17:57:55;977.7;;;19.4;40.8
56272;BME280;42177;48.914;18.160;2023-04-23T18:02:56;977.7;;;19.4;40.8
56272;BME280;42177;48.914;18.160;2023-04-23T18:07:56;977.9;;;19.1;41.6
56272;BME280;42177;48.914;18.160;2023-04-23T18:12:56;977.9;;;19.1;41.6
56272;BME280;42177;48.914;18.160;2023-04-23T18:17:56;977.9;;;18.9;42.8
56272;BME280;42177;48.914;18.160;2023-04-23T18:22:56;977.9;;;18.9;42.8
56272;BME280;42177;48.914;18.160;2023-04-23T18:27:56;977.9;;;18.4;44.9
56272;BME280;42177;48.914;18.160;2023-04-23T18:32:58;977.9;;;18.4;44.9
56272;BME280;42177;48.914;18.160;2023-04-23T18:37:58;978;;;18.7;43.1
56272;BME280;42177;48.914;18.160;2023-04-23T18:48:02;978;;;18.4;44.1
56272;BME280;42177;48.914;18.160;2023-04-23T18:53:00;978;;;18.4;44.1
56272;BME280;42177;48.914;18.160;2023-04-23T18:57:56;978;;;18.5;44.7
56272;BME280;42177;48.914;18.160;2023-04-23T19:02:56;978;;;18.5;44.7
56272;BME280;42177;48.914;18.160;2023-04-23T19:07:56;978.1;;;18.5;45.3
56272;BME280;42177;48.914;18.160;2023-04-23T19:12:56;978.1;;;18.5;45.3
56272;BME280;42177;48.914;18.160;2023-04-23T19:17:56;978;;;18;45
56272;BME280;42177;48.914;18.160;2023-04-23T19:22:56;978;;;18;45
56272;BME280;42177;48.914;18.160;2023-04-23T19:27:56;978.1;;;18.1;44.3
56272;BME280;42177;48.914;18.160;2023-04-23T19:32:56;978.1;;;18.1;44.3
56272;BME280;42177;48.914;18.160;2023-04-23T19:37:56;978.1;;;17.8;45.4
56272;BME280;42177;48.914;18.160;2023-04-23T19:42:56;978.1;;;17.8;45.4
56272;BME280;42177;48.914;18.160;2023-04-23T19:47:56;978;;;17.6;45.2
56272;BME280;42177;48.914;18.160;2023-04-23T19:52:56;978;;;17.6;45.2
56272;BME280;42177;48.914;18.160;2023-04-23T19:57:56;977.9;;;17.7;44.7
56272;BME280;42177;48.914;18.160;2023-04-23T20:02:56;977.9;;;17.7;44.7
56272;BME280;42177;48.914;18.160;2023-04-23T20:07:56;977.9;;;17.8;42.5
56272;BME280;42177;48.914;18.160;2023-04-23T20:12:56;977.9;;;17.8;42.5
56272;BME280;42177;48.914;18.160;2023-04-23T20:17:56;977.9;;;17.9;41.7
56272;BME280;42177;48.914;18.160;2023-04-23T20:22:56;977.9;;;17.9;41.7
56272;BME280;42177;48.914;18.160;2023-04-23T20:27:56;977.9;;;18.1;40.1
56272;BME280;42177;48.914;18.160;2023-04-23T20:32:56;977.9;;;18.1;40.1
56272;BME280;42177;48.914;18.160;2023-04-23T20:37:56;977.9;;;18.1;39.6
56272;BME280;42177;48.914;18.160;2023-04-23T20:42:56;977.9;;;18.1;39.6
56272;BME280;42177;48.914;18.160;2023-04-23T20:47:56;977.8;;;18.3;38.6
56272;BME280;42177;48.914;18.160;2023-04-23T20:52:56;977.8;;;18.3;38.6
56272;BME280;42177;48.914;18.160;2023-04-23T20:57:56;977.7;;;18.2;38.6
56272;BME280;42177;48.914;18.160;2023-04-23T21:02:56;977.7;;;18.2;38.6
56272;BME280;42177;48.914;18.160;2023-04-23T21:07:56;977.5;;;18;39.3
56272;BME280;42177;48.914;18.160;2023-04-23T21:12:56;977.5;;;18;39.3
56272;BME280;42177;48.914;18.160;2023-04-23T21:17:56;977.4;;;17.8;39.5
56272;BME280;42177;48.914;18.160;2023-04-23T21:22:56;977.4;;;17.8;39.5
56272;BME280;42177;48.914;18.160;2023-04-23T21:27:56;977.3;;;17.9;39.2
56272;BME280;42177;48.914;18.160;2023-04-23T21:32:56;977.3;;;17.9;39.2
56272;BME280;42177;48.914;18.160;2023-04-23T21:37:56;977.2;;;17.9;39
56272;BME280;42177;48.914;18.160;2023-04-23T21:42:56;977.2;;;17.9;39
56272;BME280;42177;48.914;18.160;2023-04-23T21:47:56;977.2;;;17.8;39
56272;BME280;42177;48.914;18.160;2023-04-23T21:52:56;977.2;;;17.8;39
56272;BME280;42177;48.914;18.160;2023-04-23T21:57:56;977.1;;;17.7;39.1
56272;BME280;42177;48.914;18.160;2023-04-23T22:02:56;977.1;;;17.7;39.1
56272;BME280;42177;48.914;18.160;2023-04-23T22:07:56;977.1;;;17.8;38.9
56272;BME280;42177;48.914;18.160;2023-04-23T22:12:56;977.1;;;17.8;38.9
56272;BME280;42177;48.914;18.160;2023-04-23T22:17:56;977;;;17.8;38.7
56272;BME280;42177;48.914;18.160;2023-04-23T22:22:56;977;;;17.8;38.7
56272;BME280;42177;48.914;18.160;2023-04-23T22:27:56;976.9;;;17.6;38.5
56272;BME280;42177;48.914;18.160;2023-04-23T22:32:56;976.9;;;17.6;38.5
56272;BME280;42177;48.914;18.160;2023-04-23T22:37:56;976.9;;;17.7;38.5
56272;BME280;42177;48.914;18.160;2023-04-23T22:42:56;976.9;;;17.7;38.5
56272;BME280;42177;48.914;18.160;2023-04-23T22:47:56;976.9;;;17.4;39.3
56272;BME280;42177;48.914;18.160;2023-04-23T22:52:56;976.9;;;17.4;39.3
56272;BME280;42177;48.914;18.160;2023-04-23T22:57:56;976.8;;;17.5;39.4
56272;BME280;42177;48.914;18.160;2023-04-23T23:02:56;976.8;;;17.5;39.4
56272;BME280;42177;48.914;18.160;2023-04-23T23:07:56;976.6;;;17.2;39.1
56272;BME280;42177;48.914;18.160;2023-04-23T23:12:56;976.6;;;17.2;39.1
56272;BME280;42177;48.914;18.160;2023-04-23T23:17:56;976.5;;;17.4;39.4
56272;BME280;42177;48.914;18.160;2023-04-23T23:22:56;976.5;;;17.4;39.4
56272;BME280;42177;48.914;18.160;2023-04-23T23:27:56;976.4;;;17.3;39.5
56272;BME280;42177;48.914;18.160;2023-04-23T23:32:56;976.4;;;17.3;39.5
56272;BME280;42177;48.914;18.160;2023-04-23T23:37:56;976.5;;;17.5;38.9
56272;BME280;42177;48.914;18.160;2023-04-23T23:42:56;976.5;;;17.5;38.9
56272;BME280;42177;48.914;18.160;2023-04-23T23:47:56;976.3;;;17.3;39
56272;BME280;42177;48.914;18.160;2023-04-23T23:52:56;976.3;;;17.3;39
56272;BME280;42177;48.914;18.160;2023-04-23T23:57:56;976.3;;;17.2;39.3
